Observations for GENOVA SESTRI, Italy (LIMJ)

LIMJ 201950Z 03006KT 9999 FEW030 10/06 Q1026
LIMJ 201920Z 02005KT 9999 FEW030 10/06 Q1026
LIMJ 201850Z 03005KT 9999 FEW030 11/06 Q1025
LIMJ 201820Z 03003KT 9999 FEW030 11/06 Q1025
LIMJ 201750Z VRB02KT 9999 FEW030 11/06 Q1025
LIMJ 201720Z 20003KT 150V220 CAVOK 12/06 Q1025  
LIMJ 201650Z 22003KT CAVOK 12/06 Q1025  
LIMJ 201620Z 22004KT 190V250 CAVOK 13/06 Q1025  
LIMJ 201550Z 21005KT CAVOK 13/06 Q1025  
LIMJ 201520Z 23005KT CAVOK 13/06 Q1025  
LIMJ 201450Z 22005KT 190V290 CAVOK 13/06 Q1025  
LIMJ 201420Z 20005KT 150V220 CAVOK 14/06 Q1025  
LIMJ 201350Z 20006KT CAVOK 14/07 Q1025  
LIMJ 201320Z 19004KT 150V230 9999 FEW030 14/06 Q1025
LIMJ 201250Z 20005KT 9999 FEW030 14/06 Q1025
LIMJ 201220Z 20004KT 160V220 9999 FEW030 14/06 Q1025
LIMJ 201150Z 20004KT 160V240 9999 FEW030 14/06 Q1025
LIMJ 201120Z 18004KT 140V200 9999 FEW030 14/05 Q1025
LIMJ 201050Z 15004KT 9999 FEW030 14/06 Q1025
LIMJ 201020Z VRB04KT 9999 FEW030 13/05 Q1025
LIMJ 200950Z 15003KT 120V180 9999 FEW030 13/06 Q1025
LIMJ 200920Z 14003KT 100V170 9999 FEW030 13/05 Q1025
LIMJ 200850Z 03003KT 9999 FEW030 12/05 Q1025
LIMJ 200820Z 03004KT 9999 FEW030 11/04 Q1025
LIMJ 200750Z 03005KT 9999 FEW030 10/04 Q1025
LIMJ 200720Z 02005KT 9999 FEW030 09/04 Q1024
LIMJ 200650Z 02005KT 9999 FEW030 08/04 Q1024
LIMJ 200620Z 02005KT CAVOK 08/04 Q1023  
LIMJ 200550Z 01005KT CAVOK 08/04 Q1023  
LIMJ 200520Z 02005KT CAVOK 08/04 Q1023  
LIMJ 200450Z 02004KT CAVOK 08/04 Q1023  
LIMJ 200420Z 01004KT CAVOK 08/04 Q1023  
LIMJ 200350Z 02004KT CAVOK 08/04 Q1023  
LIMJ 200320Z 02004KT 9999 FEW050 08/04 Q1023
LIMJ 200250Z 02005KT 9999 FEW050 08/04 Q1023
LIMJ 200220Z 02005KT 9999 SCT050 09/04 Q1023
LIMJ 200150Z 01005KT 9999 SCT050 09/04 Q1024
LIMJ 200120Z 02004KT 9999 SCT050 09/04 Q1024
LIMJ 200050Z 02004KT 9999 SCT050 09/04 Q1024
LIMJ 200020Z 02004KT 9999 SCT050 09/05 Q1024
LIMJ 192350Z 03005KT 9999 SCT050 10/05 Q1024
LIMJ 192320Z 03004KT 9999 SCT050 10/05 Q1023
LIMJ 192250Z 03005KT 9999 SCT050 10/05 Q1023
LIMJ 192220Z 02004KT 9999 SCT050 11/05 Q1023
LIMJ 192150Z 02004KT 9999 SCT050 11/05 Q1023
LIMJ 192120Z 04003KT 360V080 9999 BKN045 11/05 Q1023
LIMJ 192050Z 06004KT 020V080 9999 BKN045 12/05 Q1023
LIMJ 192020Z 10006KT 9999 BKN045 11/05 Q1023
LIMJ 191950Z 14008KT 9999 BKN045 12/06 Q1023
LIMJ 191920Z 15007KT 9999 BKN045 12/06 Q1023